createdAt,value
2023-04-23T00:00:56.175Z,73.1158
2023-04-23T00:01:57.818Z,73.3243
2023-04-23T00:02:59.873Z,73.3562
2023-04-23T00:04:01.474Z,73.2787
2023-04-23T00:05:02.784Z,73.5815
2023-04-23T00:06:04.467Z,73.2420
2023-04-23T00:07:06.013Z,73.0168
2023-04-23T00:08:07.794Z,73.0509
2023-04-23T00:09:09.335Z,72.8556
2023-04-23T00:10:11.007Z,72.5322
2023-04-23T00:11:13.192Z,72.2177
2023-04-23T00:12:14.282Z,72.1828
2023-04-23T00:13:15.909Z,72.4619
2023-04-23T00:14:17.629Z,72.9117
2023-04-23T00:15:19.719Z,72.3677
2023-04-23T00:16:20.887Z,73.0423
2023-04-23T00:17:22.492Z,72.9081
2023-04-23T00:18:24.154Z,72.9801
2023-04-23T00:19:25.828Z,72.5625
2023-04-23T00:20:27.405Z,72.7647
2023-04-23T00:21:29.030Z,72.8459
2023-04-23T00:22:30.737Z,72.9572
2023-04-23T00:23:32.447Z,72.7277
2023-04-23T00:24:34.330Z,72.2396
2023-04-23T00:25:35.590Z,72.3876
2023-04-23T00:26:37.313Z,72.2184
2023-04-23T00:27:38.931Z,72.1379
2023-04-23T00:28:41.340Z,72.8491
2023-04-23T00:29:42.215Z,72.8263
2023-04-23T00:30:43.883Z,72.5355
2023-04-23T00:31:45.485Z,72.7239
2023-04-23T00:32:47.330Z,72.6646
2023-04-23T00:33:48.736Z,72.3334
2023-04-23T00:34:50.770Z,72.7031
2023-04-23T00:35:52.018Z,72.4918
2023-04-23T00:36:53.733Z,72.1943
2023-04-23T00:37:55.290Z,72.1149
2023-04-23T00:38:57.027Z,72.0241
2023-04-23T00:39:58.764Z,71.7675
2023-04-23T00:41:00.353Z,71.8711
2023-04-23T00:42:01.878Z,72.2656
2023-04-23T00:43:03.568Z,72.7680
2023-04-23T00:44:05.325Z,72.7858
2023-04-23T00:45:06.861Z,72.2970
2023-04-23T00:46:09.314Z,72.7418
2023-04-23T00:47:10.072Z,73.0302
2023-04-23T00:48:11.805Z,73.1186
2023-04-23T00:49:14.323Z,73.2092
2023-04-23T00:50:15.163Z,73.0274
2023-04-23T00:51:17.370Z,73.3046
2023-04-23T00:52:18.359Z,73.0901
2023-04-23T00:53:19.982Z,72.6089
2023-04-23T00:54:21.570Z,72.5312
2023-04-23T00:55:23.331Z,72.2113
2023-04-23T00:56:24.960Z,72.3031
2023-04-23T00:57:26.594Z,72.6620
2023-04-23T00:58:28.140Z,72.9155
2023-04-23T00:59:29.817Z,72.7232
2023-04-23T01:00:32.319Z,72.4762
2023-04-23T01:01:33.251Z,72.7611
2023-04-23T01:02:34.812Z,72.5757
2023-04-23T01:03:36.682Z,72.8820
2023-04-23T01:04:38.177Z,72.7647
2023-04-23T01:05:39.853Z,72.6052
2023-04-23T01:06:41.472Z,72.0122
2023-04-23T01:07:43.079Z,71.8146
2023-04-23T01:08:44.727Z,72.4337
2023-04-23T01:09:46.396Z,72.5114
2023-04-23T01:10:48.102Z,72.4087
2023-04-23T01:11:49.755Z,72.5214
2023-04-23T01:12:51.277Z,72.5059
2023-04-23T01:13:52.991Z,72.4308
2023-04-23T01:14:54.538Z,72.6114
2023-04-23T01:15:56.268Z,72.3177
2023-04-23T01:16:58.874Z,72.3364
2023-04-23T01:17:59.593Z,72.7595
2023-04-23T01:19:01.084Z,72.5343
2023-04-23T01:20:02.746Z,72.1465
2023-04-23T01:21:04.467Z,71.6840
2023-04-23T01:22:06.139Z,71.7315
2023-04-23T01:23:07.763Z,71.6117
2023-04-23T01:24:09.367Z,72.4584
2023-04-23T01:25:10.977Z,72.0920
2023-04-23T01:26:13.592Z,72.5431
2023-04-23T01:27:14.341Z,72.5203
2023-04-23T01:28:15.956Z,72.1257
2023-04-23T01:29:17.599Z,71.9131
2023-04-23T01:30:19.232Z,72.1444
2023-04-23T01:31:20.966Z,72.1143
2023-04-23T01:32:22.647Z,71.9590
2023-04-23T01:33:24.118Z,72.0101
2023-04-23T01:34:26.778Z,71.5454
2023-04-23T01:35:27.343Z,70.9133
2023-04-23T01:36:29.359Z,70.7203
2023-04-23T01:37:30.818Z,71.1178
2023-04-23T01:38:33.295Z,71.6677
2023-04-23T01:39:33.996Z,71.7174
2023-04-23T01:40:36.014Z,71.3265
2023-04-23T01:41:37.237Z,71.0481
2023-04-23T01:42:38.944Z,71.3023
2023-04-23T01:43:40.558Z,71.7500
2023-04-23T01:44:42.568Z,71.2048
2023-04-23T01:45:43.914Z,71.5594
2023-04-23T01:46:45.432Z,72.3518
2023-04-23T01:47:47.224Z,72.0039
2023-04-23T01:48:48.762Z,72.0018
2023-04-23T01:49:50.397Z,71.2467
2023-04-23T01:50:52.141Z,71.0254
2023-04-23T01:51:53.672Z,71.3107
2023-04-23T01:52:55.406Z,71.4232
2023-04-23T01:53:56.918Z,71.7515
2023-04-23T01:54:59.038Z,71.9329
2023-04-23T01:56:00.236Z,72.3475
2023-04-23T01:57:01.880Z,72.2733
2023-04-23T01:58:03.505Z,72.6452
2023-04-23T01:59:06.466Z,72.8178
2023-04-23T02:00:06.760Z,72.7635
2023-04-23T02:01:09.492Z,72.5093
2023-04-23T02:02:10.069Z,71.6411
2023-04-23T02:03:11.892Z,71.1143
2023-04-23T02:04:13.380Z,71.2556
2023-04-23T02:05:15.181Z,72.0498
2023-04-23T02:06:16.613Z,72.3740
2023-04-23T02:07:18.286Z,71.8297
2023-04-23T02:08:19.938Z,71.3806
2023-04-23T02:09:22.649Z,71.6677
2023-04-23T02:10:23.163Z,71.7545
2023-04-23T02:11:25.096Z,71.9221
2023-04-23T02:12:26.584Z,72.5861
2023-04-23T02:13:28.514Z,72.3445
2023-04-23T02:14:29.756Z,71.8508
2023-04-23T02:15:31.487Z,71.2811
2023-04-23T02:16:33.136Z,71.3947
2023-04-23T02:17:34.784Z,71.2859
2023-04-23T02:18:36.366Z,71.6313
2023-04-23T02:19:38.083Z,71.6773
2023-04-23T02:20:39.666Z,71.8156
2023-04-23T02:21:41.422Z,71.9011
2023-04-23T02:22:43.882Z,72.1979
2023-04-23T02:23:44.664Z,72.6176
2023-04-23T02:24:46.306Z,72.8675
2023-04-23T02:25:48.004Z,72.9208
2023-04-23T02:26:49.549Z,72.5027
2023-04-23T02:27:51.218Z,71.7738
2023-04-23T02:28:53.010Z,71.2928
2023-04-23T02:29:54.499Z,71.0267
2023-04-23T02:30:56.090Z,70.9115
2023-04-23T02:31:57.930Z,71.4008
2023-04-23T02:32:59.437Z,70.9306
2023-04-23T02:34:01.029Z,70.3100
2023-04-23T02:35:02.645Z,70.6618
2023-04-23T02:36:04.308Z,71.1819
2023-04-23T02:37:06.957Z,71.8933
2023-04-23T02:38:07.521Z,72.1484
2023-04-23T02:39:09.102Z,72.3105
2023-04-23T02:40:10.907Z,71.7645
2023-04-23T02:41:12.928Z,71.7609
2023-04-23T02:42:14.204Z,70.9815
2023-04-23T02:43:15.783Z,70.7031
2023-04-23T02:44:17.426Z,70.5204
2023-04-23T02:45:19.088Z,70.2557
2023-04-23T02:46:20.780Z,70.6111
2023-04-23T02:47:22.447Z,71.2953
2023-04-23T02:48:24.031Z,71.3704
2023-04-23T02:49:25.650Z,70.8840
2023-04-23T02:50:27.305Z,70.8529
2023-04-23T02:51:29.509Z,70.9131
2023-04-23T02:52:30.579Z,70.7868
2023-04-23T02:53:32.217Z,71.4444
2023-04-23T02:54:33.829Z,71.4439
2023-04-23T02:55:35.500Z,70.6875
2023-04-23T02:56:37.144Z,70.5260
2023-04-23T02:57:38.932Z,70.3896
2023-04-23T02:58:40.392Z,70.3587
2023-04-23T02:59:42.118Z,70.0324
2023-04-23T03:00:43.725Z,70.5991
2023-04-23T03:01:45.394Z,71.0202
2023-04-23T03:02:47.126Z,71.4824
2023-04-23T03:03:48.869Z,71.2125
2023-04-23T03:04:50.256Z,71.3429
2023-04-23T03:05:51.926Z,71.4212
2023-04-23T03:06:53.639Z,71.7790
2023-04-23T03:07:55.936Z,71.5233
2023-04-23T03:08:56.812Z,70.9952
2023-04-23T03:09:58.539Z,70.4996
2023-04-23T03:11:00.167Z,70.3754
2023-04-23T03:12:02.486Z,70.4163
2023-04-23T03:13:03.454Z,70.7585
2023-04-23T03:14:05.140Z,70.4535
2023-04-23T03:15:06.706Z,70.4664
2023-04-23T03:16:08.934Z,70.5267
2023-04-23T03:17:10.060Z,70.7802
2023-04-23T03:18:11.716Z,70.6784
2023-04-23T03:19:13.345Z,71.0675
2023-04-23T03:20:15.914Z,71.6929
2023-04-23T03:21:16.557Z,71.3763
2023-04-23T03:22:18.307Z,70.6789
2023-04-23T03:23:19.926Z,70.3775
2023-04-23T03:24:21.559Z,70.2510
2023-04-23T03:25:23.117Z,70.8910
2023-04-23T03:26:24.828Z,70.8261
2023-04-23T03:27:26.481Z,70.6910
2023-04-23T03:28:28.162Z,71.1853
2023-04-23T03:29:29.707Z,70.9163
2023-04-23T03:30:31.381Z,71.0030
2023-04-23T03:31:32.975Z,71.3476
2023-04-23T03:32:34.714Z,71.9707
2023-04-23T03:33:36.341Z,71.5647
2023-04-23T03:34:37.952Z,70.9981
2023-04-23T03:35:39.594Z,70.3403
2023-04-23T03:36:41.204Z,70.4323
2023-04-23T03:37:42.907Z,70.2786
2023-04-23T03:38:44.596Z,70.3096
2023-04-23T03:39:46.147Z,69.8175
2023-04-23T03:40:47.843Z,70.1084
2023-04-23T03:41:49.418Z,71.0168
2023-04-23T03:42:51.169Z,71.4324
2023-04-23T03:43:53.430Z,71.3757
2023-04-23T03:44:54.371Z,71.6818
2023-04-23T03:45:56.104Z,71.6947
2023-04-23T03:46:58.402Z,70.9637
2023-04-23T03:47:59.428Z,70.4334
2023-04-23T03:49:01.454Z,70.2855
2023-04-23T03:50:02.604Z,70.2401
2023-04-23T03:51:04.229Z,70.6529
2023-04-23T03:52:05.908Z,70.3525
2023-04-23T03:53:07.596Z,70.9219
2023-04-23T03:54:09.128Z,70.4969
2023-04-23T03:55:10.787Z,70.0148
2023-04-23T03:56:12.397Z,69.4190
2023-04-23T03:57:14.016Z,69.0553
2023-04-23T03:58:15.700Z,69.0004
2023-04-23T03:59:17.333Z,68.5879
2023-04-23T04:00:19.032Z,68.2779
2023-04-23T04:01:20.594Z,67.5657
2023-04-23T04:02:22.408Z,67.4232
2023-04-23T04:03:25.185Z,66.7500
2023-04-23T04:04:25.832Z,66.3821
2023-04-23T04:05:27.309Z,66.0696
2023-04-23T04:06:28.914Z,65.9538
2023-04-23T04:07:30.464Z,65.9755
2023-04-23T04:08:32.133Z,65.8018
2023-04-23T04:09:33.764Z,65.4404
2023-04-23T04:10:35.932Z,65.0999
2023-04-23T04:11:37.410Z,64.7477
2023-04-23T04:12:38.739Z,64.3573
2023-04-23T04:13:40.370Z,64.5444
2023-04-23T04:14:42.301Z,66.7693
2023-04-23T04:15:44.459Z,66.9137
2023-04-23T04:16:45.368Z,65.8639
2023-04-23T04:17:47.017Z,64.7072
2023-04-23T04:18:48.724Z,64.4550
2023-04-23T04:19:50.606Z,64.5597
2023-04-23T04:20:52.031Z,64.2549
2023-04-23T04:21:53.630Z,64.1003
2023-04-23T04:22:55.295Z,63.7311
2023-04-23T04:23:57.980Z,63.4459
2023-04-23T04:24:58.454Z,63.2561
2023-04-23T04:26:00.203Z,63.1708
2023-04-23T04:27:01.869Z,63.3140
2023-04-23T04:28:03.554Z,63.2579
2023-04-23T04:29:05.126Z,63.2964
2023-04-23T04:30:06.880Z,63.1881
2023-04-23T04:31:08.505Z,63.1503
2023-04-23T04:32:10.098Z,63.0736
2023-04-23T04:33:11.770Z,62.9959
2023-04-23T04:34:13.449Z,62.9348
2023-04-23T04:35:14.968Z,62.7866
2023-04-23T04:36:16.703Z,62.7563
2023-04-23T04:37:18.279Z,62.6869
2023-04-23T04:38:19.960Z,62.6447
2023-04-23T04:39:21.583Z,62.6133
2023-04-23T04:40:23.278Z,62.5518
2023-04-23T04:41:24.920Z,62.5664
2023-04-23T04:42:26.534Z,62.5866
2023-04-23T04:43:28.227Z,62.7677
2023-04-23T04:44:29.796Z,62.8448
2023-04-23T04:45:31.509Z,62.9696
2023-04-23T04:46:33.131Z,63.1303
2023-04-23T04:47:34.776Z,63.1573
2023-04-23T04:48:37.377Z,63.2052
2023-04-23T04:49:38.089Z,63.1766
2023-04-23T04:50:39.680Z,63.2311
2023-04-23T04:51:41.293Z,63.3455
2023-04-23T04:52:42.983Z,63.4383
2023-04-23T04:53:44.589Z,63.5982
2023-04-23T04:54:46.226Z,63.6292
2023-04-23T04:55:47.907Z,63.6658
2023-04-23T04:56:49.627Z,63.6017
2023-04-23T04:57:52.200Z,63.7875
2023-04-23T04:58:53.776Z,63.9705
2023-04-23T04:59:55.350Z,63.9202
2023-04-23T05:00:56.098Z,63.9605
2023-04-23T05:01:57.793Z,63.9842
2023-04-23T05:02:59.535Z,64.0232
2023-04-23T05:04:01.109Z,63.9688
2023-04-23T05:05:02.619Z,64.0094
2023-04-23T05:06:04.302Z,64.1732
2023-04-23T05:07:05.925Z,64.3799
2023-04-23T05:08:07.574Z,64.0580
2023-04-23T05:09:09.173Z,63.5235
2023-04-23T05:10:10.931Z,63.5331
2023-04-23T05:11:12.498Z,63.7729
2023-04-23T05:12:14.238Z,64.0226
2023-04-23T05:13:15.855Z,64.2834
2023-04-23T05:14:17.459Z,64.2573
2023-04-23T05:15:19.108Z,64.2963
2023-04-23T05:16:20.871Z,64.3308
2023-04-23T05:17:23.075Z,64.3268
2023-04-23T05:18:24.120Z,64.2981
2023-04-23T05:19:25.647Z,64.4761
2023-04-23T05:20:27.352Z,64.5350
2023-04-23T05:21:29.022Z,64.6530
2023-04-23T05:22:30.670Z,64.6536
2023-04-23T05:23:32.213Z,64.6676
2023-04-23T05:24:33.948Z,64.7660
2023-04-23T05:25:35.580Z,64.7319
2023-04-23T05:26:37.267Z,64.7831
2023-04-23T05:27:38.893Z,64.9111
2023-04-23T05:28:40.517Z,64.9813
2023-04-23T05:29:42.118Z,64.8928
2023-04-23T05:30:43.804Z,64.8515
2023-04-23T05:31:45.498Z,64.8158
2023-04-23T05:32:47.198Z,64.9805
2023-04-23T05:33:50.504Z,65.0257
2023-04-23T05:34:50.372Z,65.1062
2023-04-23T05:35:52.019Z,65.0451
2023-04-23T05:36:53.772Z,65.0717
2023-04-23T05:37:55.373Z,65.0385
2023-04-23T05:38:56.996Z,65.1238
2023-04-23T05:39:58.577Z,65.2548
2023-04-23T05:41:00.291Z,65.2568
2023-04-23T05:42:02.405Z,65.2694
2023-04-23T05:43:03.579Z,65.3417
2023-04-23T05:44:05.185Z,65.3736
2023-04-23T05:45:08.864Z,65.4845
2023-04-23T05:46:08.512Z,65.4886
2023-04-23T05:47:10.203Z,65.4755
2023-04-23T05:48:11.843Z,65.5006
2023-04-23T05:49:13.468Z,65.4681
2023-04-23T05:50:15.092Z,65.4920
2023-04-23T05:51:16.788Z,65.5904
2023-04-23T05:52:18.434Z,65.6574
2023-04-23T05:53:20.162Z,65.7026
2023-04-23T05:54:21.653Z,65.7568
2023-04-23T05:55:23.338Z,65.7887
2023-04-23T05:56:25.058Z,65.8520
2023-04-23T05:57:27.525Z,65.9154
2023-04-23T05:58:28.346Z,65.9424
2023-04-23T05:59:29.978Z,65.9240
2023-04-23T06:00:31.630Z,65.9697
2023-04-23T06:01:33.205Z,66.0723
2023-04-23T06:02:35.042Z,66.0174
2023-04-23T06:03:36.793Z,65.9756
2023-04-23T06:04:38.361Z,66.0156
2023-04-23T06:05:39.835Z,66.0073
2023-04-23T06:06:41.484Z,66.0579
2023-04-23T06:07:43.180Z,66.0262
2023-04-23T06:08:45.063Z,66.0371
2023-04-23T06:09:46.401Z,66.1988
2023-04-23T06:10:48.108Z,66.1976
2023-04-23T06:11:49.683Z,66.2470
2023-04-23T06:12:51.592Z,66.2589
2023-04-23T06:13:53.060Z,66.2902
2023-04-23T06:14:54.689Z,66.3606
2023-04-23T06:15:56.319Z,66.4518
2023-04-23T06:16:57.981Z,66.4402
2023-04-23T06:17:59.666Z,66.3715
2023-04-23T06:19:01.588Z,66.2954
2023-04-23T06:20:02.904Z,66.3104
2023-04-23T06:21:04.566Z,66.2978
2023-04-23T06:22:06.164Z,66.3555
2023-04-23T06:23:07.866Z,66.3885
2023-04-23T06:24:09.504Z,66.4068
2023-04-23T06:25:11.180Z,66.4621
2023-04-23T06:26:12.722Z,66.6313
2023-04-23T06:27:14.421Z,66.6935
2023-04-23T06:28:16.163Z,66.6642
2023-04-23T06:29:17.758Z,66.7233
2023-04-23T06:30:19.374Z,66.7341
2023-04-23T06:31:21.061Z,66.7951
2023-04-23T06:32:22.630Z,66.7943
2023-04-23T06:33:24.284Z,66.7168
2023-04-23T06:34:26.131Z,66.6864
2023-04-23T06:35:27.635Z,66.7022
2023-04-23T06:36:29.166Z,66.7214
2023-04-23T06:37:31.029Z,66.7641
2023-04-23T06:38:32.428Z,66.7435
2023-04-23T06:39:34.183Z,66.6951
2023-04-23T06:40:35.718Z,66.6951
2023-04-23T06:41:37.337Z,66.7173
2023-04-23T06:42:40.096Z,66.7334
2023-04-23T06:43:40.887Z,66.7240
2023-04-23T06:44:42.675Z,66.7694
2023-04-23T06:45:44.232Z,66.7463
2023-04-23T06:46:45.826Z,66.7016
2023-04-23T06:47:48.212Z,66.6607
2023-04-23T06:48:48.999Z,66.6980
2023-04-23T06:49:50.736Z,66.7194
2023-04-23T06:50:52.379Z,66.7539
2023-04-23T06:51:56.975Z,66.8092
2023-04-23T06:52:55.476Z,66.8975
2023-04-23T06:53:57.193Z,66.9700
2023-04-23T06:54:59.862Z,67.0300
2023-04-23T06:56:00.461Z,67.1531
2023-04-23T06:57:02.179Z,67.1721
2023-04-23T06:58:03.753Z,66.3559
2023-04-23T06:59:05.356Z,63.9058
2023-04-23T07:00:07.109Z,59.8108
2023-04-23T07:01:08.701Z,56.2506
2023-04-23T07:02:10.369Z,56.7024
2023-04-23T07:03:11.997Z,56.8524
2023-04-23T07:04:13.669Z,57.6367
2023-04-23T07:05:15.272Z,57.8469
2023-04-23T07:06:18.603Z,58.3517
2023-04-23T07:07:18.508Z,58.9042
2023-04-23T07:08:20.205Z,59.3684
2023-04-23T07:09:21.818Z,59.8586
2023-04-23T07:10:23.560Z,60.3003
2023-04-23T07:11:25.142Z,60.7628
2023-04-23T07:12:26.830Z,61.1245
2023-04-23T07:13:28.442Z,60.0377
2023-04-23T07:14:30.087Z,55.5977
2023-04-23T07:15:31.845Z,55.4267
2023-04-23T07:16:33.480Z,55.7867
2023-04-23T07:17:34.992Z,56.0883
2023-04-23T07:18:36.657Z,56.3691
2023-04-23T07:19:38.288Z,56.8587
2023-04-23T07:20:39.989Z,57.5089
2023-04-23T07:21:41.578Z,58.0153
2023-04-23T07:22:43.232Z,58.5288
2023-04-23T07:23:44.865Z,58.9076
2023-04-23T07:24:46.522Z,59.2692
2023-04-23T07:25:48.183Z,59.6603
2023-04-23T07:26:49.858Z,56.2208
2023-04-23T07:27:51.401Z,53.4085
2023-04-23T07:28:53.183Z,54.3526
2023-04-23T07:29:54.704Z,54.5579
2023-04-23T07:30:56.454Z,54.8212
2023-04-23T07:31:58.077Z,55.2243
2023-04-23T07:32:59.718Z,55.6814
2023-04-23T07:34:01.392Z,56.0992
2023-04-23T07:35:02.975Z,56.5946
2023-04-23T07:36:04.598Z,57.1514
2023-04-23T07:37:06.316Z,53.1779
2023-04-23T07:38:07.860Z,51.8427
2023-04-23T07:39:09.545Z,52.5731
2023-04-23T07:40:11.189Z,52.7540
2023-04-23T07:41:12.914Z,53.2823
2023-04-23T07:42:15.068Z,53.9831
2023-04-23T07:43:16.142Z,54.4853
2023-04-23T07:44:17.761Z,55.1112
2023-04-23T07:45:19.500Z,55.7598
2023-04-23T07:46:21.146Z,56.3393
2023-04-23T07:47:23.002Z,56.9041
2023-04-23T07:48:24.413Z,57.5116
2023-04-23T07:49:26.021Z,52.6291
2023-04-23T07:50:27.637Z,52.8704
2023-04-23T07:51:29.351Z,54.0679
2023-04-23T07:52:30.957Z,54.5998
2023-04-23T07:53:32.577Z,54.1817
2023-04-23T07:54:34.207Z,54.3983
2023-04-23T07:55:35.917Z,54.8587
2023-04-23T07:56:37.597Z,55.2518
2023-04-23T07:57:39.241Z,55.8271
2023-04-23T07:58:40.815Z,56.5092
2023-04-23T07:59:42.863Z,57.1485
2023-04-23T08:00:44.088Z,57.5558
2023-04-23T08:01:45.820Z,57.9663
2023-04-23T08:02:47.614Z,58.4253
2023-04-23T08:03:49.440Z,58.9017
2023-04-23T08:04:50.827Z,59.1636
2023-04-23T08:05:52.336Z,59.6195
2023-04-23T08:06:54.045Z,60.0717
2023-04-23T08:07:55.645Z,60.5165
2023-04-23T08:08:57.308Z,60.7593
2023-04-23T08:09:58.900Z,61.1754
2023-04-23T08:11:00.547Z,61.4697
2023-04-23T08:12:02.236Z,61.7746
2023-04-23T08:13:03.902Z,62.1804
2023-04-23T08:14:05.496Z,62.2258
2023-04-23T08:15:07.220Z,62.5559
2023-04-23T08:16:08.790Z,62.9060
2023-04-23T08:17:10.463Z,63.1558
2023-04-23T08:18:12.107Z,63.3662
2023-04-23T08:19:13.706Z,63.5781
2023-04-23T08:20:15.302Z,63.7538
2023-04-23T08:21:17.031Z,63.9691
2023-04-23T08:22:20.293Z,64.2618
2023-04-23T08:23:20.353Z,64.2933
2023-04-23T08:24:22.456Z,64.4670
2023-04-23T08:25:23.603Z,64.6619
2023-04-23T08:26:25.214Z,64.7999
2023-04-23T08:27:26.971Z,64.9779
2023-04-23T08:28:28.593Z,65.2337
2023-04-23T08:29:30.208Z,65.3201
2023-04-23T08:30:31.789Z,65.4163
2023-04-23T08:31:33.509Z,65.5163
2023-04-23T08:32:35.158Z,65.6899
2023-04-23T08:33:36.875Z,65.7612
2023-04-23T08:34:38.442Z,65.9359
2023-04-23T08:35:40.078Z,65.9876
2023-04-23T08:36:41.649Z,66.1926
2023-04-23T08:37:43.444Z,66.2068
2023-04-23T08:38:44.989Z,66.2458
2023-04-23T08:39:46.686Z,66.2909
2023-04-23T08:40:48.227Z,66.4147
2023-04-23T08:41:49.926Z,66.6793
2023-04-23T08:42:51.644Z,66.8610
2023-04-23T08:43:53.238Z,67.0462
2023-04-23T08:44:54.801Z,67.3618
2023-04-23T08:45:56.510Z,67.2948
2023-04-23T08:46:58.248Z,67.3578
2023-04-23T08:48:02.134Z,67.5379
2023-04-23T08:49:01.452Z,67.6798
2023-04-23T08:50:03.074Z,67.6825
2023-04-23T08:51:04.690Z,67.6767
2023-04-23T08:52:06.380Z,66.2039
2023-04-23T08:53:08.065Z,60.5542
2023-04-23T08:54:09.679Z,58.9002
2023-04-23T08:55:11.255Z,57.6098
2023-04-23T08:56:12.940Z,55.0266
2023-04-23T08:57:14.574Z,55.4858
2023-04-23T08:58:16.279Z,56.8433
2023-04-23T08:59:17.911Z,56.8305
2023-04-23T09:00:19.455Z,56.2852
2023-04-23T09:01:21.297Z,55.7145
2023-04-23T09:02:22.986Z,55.5218
2023-04-23T09:03:24.547Z,55.7672
2023-04-23T09:04:26.164Z,55.9075
2023-04-23T09:05:27.710Z,55.9156
2023-04-23T09:06:29.422Z,56.0971
2023-04-23T09:07:31.023Z,56.3505
2023-04-23T09:08:32.753Z,56.6780
2023-04-23T09:09:34.641Z,57.0399
2023-04-23T09:10:35.974Z,57.5787
2023-04-23T09:11:37.577Z,57.7807
2023-04-23T09:12:39.276Z,58.2730
2023-04-23T09:13:40.950Z,58.9272
2023-04-23T09:14:42.852Z,59.3440
2023-04-23T09:15:44.169Z,59.7939
2023-04-23T09:16:45.922Z,60.2336
2023-04-23T09:17:47.529Z,60.5322
2023-04-23T09:18:49.194Z,60.7902
2023-04-23T09:19:50.858Z,61.1836
2023-04-23T09:20:52.528Z,61.1586
2023-04-23T09:21:54.046Z,61.3762
2023-04-23T09:22:55.727Z,61.5745
2023-04-23T09:23:57.449Z,61.9793
2023-04-23T09:24:59.090Z,62.4209
2023-04-23T09:26:00.627Z,62.9681
2023-04-23T09:27:02.267Z,62.7966
2023-04-23T09:28:03.958Z,63.3379
2023-04-23T09:29:05.609Z,63.4082
2023-04-23T09:30:07.294Z,63.5422
2023-04-23T09:31:08.879Z,63.8654
2023-04-23T09:32:10.586Z,64.4342
2023-04-23T09:33:12.151Z,64.3436
2023-04-23T09:34:14.206Z,64.4551
2023-04-23T09:35:15.554Z,64.4750
2023-04-23T09:36:17.233Z,65.1956
2023-04-23T09:37:18.783Z,65.1195
2023-04-23T09:38:20.428Z,65.6324
2023-04-23T09:39:22.065Z,65.8924
2023-04-23T09:40:23.749Z,65.4074
2023-04-23T09:41:25.304Z,65.9405
2023-04-23T09:42:26.986Z,66.2173
2023-04-23T09:43:28.575Z,66.3671
2023-04-23T09:44:30.353Z,66.5082
2023-04-23T09:45:31.945Z,66.6179
2023-04-23T09:46:33.562Z,66.8304
2023-04-23T09:47:35.252Z,67.1025
2023-04-23T09:48:36.879Z,67.1705
2023-04-23T09:49:38.534Z,67.2244
2023-04-23T09:50:40.245Z,66.9411
2023-04-23T09:51:41.769Z,67.3105
2023-04-23T09:52:43.431Z,67.2685
2023-04-23T09:53:45.056Z,65.6782
2023-04-23T09:54:47.214Z,60.0327
2023-04-23T09:55:48.397Z,58.0827
2023-04-23T09:56:50.076Z,56.4582
2023-04-23T09:57:51.611Z,54.3484
2023-04-23T09:58:53.366Z,53.1893
2023-04-23T10:00:03.754Z,52.2995
2023-04-23T10:00:56.638Z,52.2149
2023-04-23T10:01:58.289Z,52.6426
2023-04-23T10:03:00.168Z,53.0117
2023-04-23T10:04:01.694Z,53.5702
2023-04-23T10:05:21.468Z,54.1125
2023-04-23T10:06:05.264Z,54.7356
2023-04-23T10:07:17.923Z,55.8175
2023-04-23T10:08:08.232Z,56.2933
2023-04-23T10:09:09.704Z,57.2253
2023-04-23T10:10:11.463Z,58.5442
2023-04-23T10:11:20.734Z,59.1407
2023-04-23T10:13:16.302Z,60.8681
2023-04-23T10:14:17.962Z,61.3858
2023-04-23T10:15:19.684Z,61.8415
2023-04-23T10:16:23.284Z,61.9985
2023-04-23T10:17:22.932Z,61.6329
2023-04-23T10:18:24.492Z,60.1866
2023-04-23T10:19:27.171Z,58.3540
2023-04-23T10:20:27.878Z,56.6130
2023-04-23T10:21:36.620Z,55.3237
2023-04-23T10:22:31.067Z,54.7455
2023-04-23T10:23:32.802Z,53.6564
2023-04-23T10:24:34.371Z,53.0742
2023-04-23T10:25:36.729Z,53.0708
2023-04-23T10:26:38.190Z,53.2427
2023-04-23T10:27:51.118Z,53.0256
2023-04-23T10:28:41.042Z,52.2457
2023-04-23T10:29:43.017Z,52.2874
2023-04-23T10:30:44.681Z,52.2768
2023-04-23T10:31:45.980Z,51.9919
2023-04-23T10:32:47.561Z,51.7266
2023-04-23T10:33:58.204Z,51.7557
2023-04-23T10:34:50.931Z,51.0208
2023-04-23T10:35:52.601Z,50.6837
2023-04-23T10:36:54.181Z,50.8107
2023-04-23T10:37:55.844Z,50.3710
2023-04-23T10:38:59.106Z,50.9438
2023-04-23T10:39:59.132Z,50.9795
2023-04-23T10:41:00.801Z,50.3674
2023-04-23T10:42:02.466Z,50.0439
2023-04-23T10:43:04.026Z,50.1205
2023-04-23T10:44:05.723Z,50.5187
2023-04-23T10:45:16.613Z,51.4907
2023-04-23T10:46:09.139Z,50.9038
2023-04-23T10:47:10.738Z,50.1582
2023-04-23T10:48:12.460Z,50.2157
2023-04-23T10:49:14.016Z,50.3681
2023-04-23T10:50:15.744Z,51.5747
2023-04-23T10:51:56.084Z,50.5188
2023-04-23T10:52:21.495Z,49.8825
2023-04-23T10:53:20.604Z,50.0270
2023-04-23T10:54:22.319Z,49.5789
2023-04-23T10:55:23.969Z,50.0011
2023-04-23T10:56:25.789Z,49.8626
2023-04-23T10:57:27.271Z,48.9584
2023-04-23T10:58:28.943Z,49.8259
2023-04-23T10:59:30.465Z,50.0239
2023-04-23T11:00:32.164Z,50.0880
2023-04-23T11:01:33.827Z,49.4833
2023-04-23T11:02:35.607Z,48.9286
2023-04-23T11:03:39.646Z,49.0455
2023-04-23T11:04:38.834Z,49.2146
2023-04-23T11:05:40.389Z,49.8624
2023-04-23T11:06:42.089Z,50.3650
2023-04-23T11:07:43.750Z,49.9144
2023-04-23T11:08:45.426Z,50.1835
2023-04-23T11:09:47.013Z,50.2274
2023-04-23T11:10:48.667Z,50.3843
2023-04-23T11:11:50.288Z,50.4085
2023-04-23T11:12:52.027Z,49.4952
2023-04-23T11:13:53.621Z,48.6607
2023-04-23T11:14:55.307Z,48.7489
2023-04-23T11:15:56.907Z,48.4701
2023-04-23T11:16:58.530Z,48.4767
2023-04-23T11:18:00.216Z,49.4913
2023-04-23T11:19:01.911Z,48.9744
2023-04-23T11:20:03.558Z,45.6266
2023-04-23T11:21:05.187Z,43.3632
2023-04-23T11:22:06.767Z,44.3577
2023-04-23T11:23:08.462Z,44.4311
2023-04-23T11:24:10.097Z,43.9705
2023-04-23T11:25:11.842Z,44.9249
2023-04-23T11:26:13.424Z,45.0293
2023-04-23T11:27:15.044Z,44.5849
2023-04-23T11:28:16.694Z,43.5096
2023-04-23T11:29:18.339Z,43.7399
2023-04-23T11:30:19.962Z,45.2382
2023-04-23T11:31:21.656Z,44.4016
2023-04-23T11:32:23.298Z,44.5259
2023-04-23T11:33:24.927Z,45.9653
2023-04-23T11:34:26.604Z,46.7860
2023-04-23T11:35:28.167Z,45.8214
2023-04-23T11:36:30.699Z,45.3194
2023-04-23T11:37:31.480Z,44.6007
2023-04-23T11:38:33.056Z,44.7850
2023-04-23T11:39:34.733Z,44.5534
2023-04-23T11:40:36.643Z,44.9303
2023-04-23T11:41:38.087Z,44.4928
2023-04-23T11:42:39.664Z,44.3591
2023-04-23T11:43:42.212Z,44.7048
2023-04-23T11:44:42.972Z,44.7377
2023-04-23T11:45:44.701Z,45.7791
2023-04-23T11:46:46.272Z,46.4882
2023-04-23T11:47:47.962Z,46.3847
2023-04-23T11:48:49.562Z,45.7083
2023-04-23T11:49:51.271Z,45.7490
2023-04-23T11:50:53.130Z,46.4355
2023-04-23T11:51:54.611Z,45.6546
2023-04-23T11:52:56.201Z,45.1241
2023-04-23T11:53:57.906Z,44.2542
2023-04-23T11:54:59.467Z,44.6436
2023-04-23T11:56:01.219Z,45.1921
2023-04-23T11:57:02.788Z,45.4943
2023-04-23T11:58:04.472Z,44.9573
2023-04-23T11:59:06.069Z,43.7508
2023-04-23T12:00:07.763Z,44.3782
2023-04-23T12:01:09.448Z,43.0853
2023-04-23T12:02:11.100Z,42.9307
2023-04-23T12:03:12.936Z,43.9139
2023-04-23T12:04:14.662Z,43.3787
2023-04-23T12:05:16.154Z,42.8331
2023-04-23T12:06:17.883Z,42.3299
2023-04-23T12:07:26.341Z,42.1918
2023-04-23T12:08:21.140Z,43.2946
2023-04-23T12:09:23.725Z,43.6102
2023-04-23T12:10:24.392Z,44.4131
2023-04-23T12:11:26.122Z,42.9653
2023-04-23T12:12:27.738Z,42.7718
2023-04-23T12:13:29.407Z,42.1583
2023-04-23T12:14:31.176Z,42.4944
2023-04-23T12:15:32.780Z,43.5863
2023-04-23T12:16:34.271Z,43.9704
2023-04-23T12:17:35.997Z,43.3238
2023-04-23T12:18:37.680Z,44.6111
2023-04-23T12:19:39.380Z,44.8543
2023-04-23T12:20:40.888Z,45.0844
2023-04-23T12:21:42.685Z,44.1687
2023-04-23T12:22:44.193Z,43.1932
2023-04-23T12:23:45.915Z,42.8481
2023-04-23T12:24:47.416Z,42.8466
2023-04-23T12:25:49.193Z,42.9686
2023-04-23T12:26:50.810Z,42.5977